Nearby METAR Reports

 

CYUL - Montreal/Dorval, Quebec, Canada
Distance from station: ENE 6km
Updated: 12/11/2017 02:00 EST
Light snow, Overcast
Light snow, Overcast
 Wind from N
Wind: N 26 km/h
Temperature: -7°C
Wind Chill: -16°C
Dew Point: -11°C
Humidity: 73%
Barometer: 1011.2 hPa
Summary: Light Snow
Clouds: Overcast
Visibility: 24 km
Cloud details: Mostly cloudy 488 m
Overcast 762 m
2017/12/11 07:00 CYUL 110700Z 35014KT 15SM -SN BKN016 OVC025 M07/M11 A2986 RMK SC7SC1 SLP117
CWVQ - Ste Anne De Bell, Quebec, Canada
Distance from station: WSW 10km
Updated: 12/11/2017 02:00 EST

 Wind from NNE
Wind: NNE 13 km/h
Temperature: -6°C
Wind Chill: -12°C
Dew Point: -9°C
Humidity: 80%
2017/12/11 07:00 CWVQ 110700Z AUTO 02007KT M06/M09 RMK AO1 SLP116 T10601089 53028
 
CWTA - Mc Tavish (aut), Quebec, Canada
Distance from station: ENE 18km
Updated: 12/11/2017 02:00 EST

 Wind from N
Wind: N 15 km/h
Temperature: -7°C
Wind Chill: -13°C
Dew Point: -10°C
Humidity: 79%
2017/12/11 07:00 CWTA 110700Z AUTO 01008KT M07/M10 RMK AO1 SOG 00 3026 SLP114 T10731103
CYMX - Montreal/Mirabel, Quebec, Canada
Distance from station: NW 29km
Updated: 12/11/2017 02:00 EST
Light snow, Overcast
Light snow, Overcast
 Wind from N
Wind: N 11 km/h
Temperature: -8°C
Wind Chill: -13°C
Dew Point: -12°C
Humidity: 73%
Barometer: 1011.2 hPa
Summary: Light Snow
Clouds: Overcast
Visibility: 24 km
Cloud details: Few Clouds 427 m
Mostly cloudy 853 m
Overcast 1128 m
2017/12/11 07:00 CYMX 110700Z 01006KT 15SM -SN FEW014 BKN028 OVC037 M08/M12 A2986 RMK SF2SC4SC2 -SN INTMT SLP120
 
CYHU - Saint Hubert Arp, Quebec, Canada
Distance from station: ENE 31km
Updated: 12/11/2017 02:00 EST
Light snow, Overcast
Light snow, Overcast
 Wind from N
Wind: N 22 km/h
Temperature: -7°C
Wind Chill: -15°C
Dew Point: -9°C
Humidity: 86%
Barometer: 1011.2 hPa
Summary: Light Snow
Clouds: Overcast
Visibility: 13 km
Cloud details: Mostly cloudy 427 m
Overcast 610 m
2017/12/11 07:00 CYHU 110700Z AUTO 01012KT 8SM -SN BKN014 OVC020 M07/M09 A2986 RMK SLP116
CWIT - St Clothilde (a, Quebec, Canada
Distance from station: SSE 33km
Updated: 12/11/2017 02:00 EST

 Wind from NW
Wind: NW 9 km/h
Temperature: -4°C
Wind Chill: -8°C
Dew Point: -6°C
Humidity: 86%
2017/12/11 07:00 CWIT 110700Z AUTO 31005KT M04/M06 RMK AO1 SLP100 T10381055 53015
 
CWIZ - L'acadie, Quebec, Canada
Distance from station: ESE 41km
Updated: 12/11/2017 02:00 EST

 Wind from N
Wind: N 7 km/h
Temperature: -4°C
Wind Chill: -7°C
Dew Point: -6°C
Humidity: 86%
2017/12/11 07:00 CWIZ 110700Z AUTO 01004KT M04/M06 RMK AO1 T10421061
CWHM - Varennes, Quebec, Canada
Distance from station: NE 45km
Updated: 10/25/2016 10:00 EDT
NOT Current

 Wind from W
Wind: W 19 km/h, Gust: 28 km/h
Temperature: 4°C
Wind Chill: 0°C
Dew Point: -2°C
Humidity: 65%
2016/10/25 14:00 CWHM 251400Z AUTO 28010G15KT 04/M02 RMK AO1 PK WND 28018/1302 T00391017
 
CWEW - L'assomption, Quebec, Canada
Distance from station: NE 50km
Updated: 12/11/2017 02:00 EST

 Wind from N
Wind: N 11 km/h
Temperature: -8°C
Wind Chill: -13°C
Dew Point: -12°C
Humidity: 73%
2017/12/11 07:00 CWEW 110700Z AUTO 01006KT M08/M12 RMK AO1 SLP128 T10831121 53030
CWBZ - St Anicet, Quebec, Canada
Distance from station: SW 52km
Updated: 12/11/2017 01:00 EST
NOT Current

 Wind from NW
Wind: NW 15 km/h
Temperature: -4°C
Wind Chill: -9°C
Dew Point: -7°C
Humidity: 80%
2017/12/11 06:00 CWBZ 110600Z AUTO 31008KT M04/M07 RMK AO1 SLP109 T10351072 53019
 
KFSO - Highgate, Vermont, USA
Distance from station: SE 79km
Updated: 12/11/2017 02:35 EST
Overcast
Overcast
 Wind from WSW
Wind: WSW 9 km/h
Temperature: -1°C
Wind Chill: -4°C
Dew Point: -5°C
Humidity: 75%
Barometer: 1010.5 hPa
Clouds: Overcast
Visibility: 16 km
Cloud details: Partly cloudy 732 m
Mostly cloudy 975 m
Overcast 2134 m
2017/12/11 07:35 KFSO 110735Z AUTO 24005KT 10SM SCT024 BKN032 OVC070 M01/M05 A2984 RMK AO2 T10131050
CMGB - Granby, Quebec, Canada
Distance from station: E 81km
Updated: 12/11/2017 02:45 EST

 Wind from N
Wind: N 7 km/h
Temperature: -8°C
Wind Chill: -12°C
Dew Point: -9°C
Humidity: 93%
2017/12/11 07:45 CMGB 110745Z AUTO 01004KT M08/M09 RMK AO1 SLP102 T10751088 53013
 
CWJT - St Jovite (autob, Quebec, Canada
Distance from station: NW 88km
Updated: 12/11/2017 02:00 EST

 Wind from NNE
Wind: NNE 2 km/h
Temperature: -14°C
Dew Point: -15°C
Humidity: 92%
2017/12/11 07:00 CWJT 110700Z AUTO 02001KT M14/M15 RMK AO1 SLP130 T11391153 52017
CWFQ - Frelighsburg, Quebec, Canada
Distance from station: ESE 90km
Updated: 12/11/2017 02:00 EST

 Wind from SSW
Wind: SSW 7 km/h
Temperature: -3°C
Wind Chill: -6°C
Dew Point: -6°C
Humidity: 80%
2017/12/11 07:00 CWFQ 110700Z AUTO 21004KT M03/M06 RMK AO1 SOG 00 3005 SLP094 T10251061
 
KPBG - Plattsburgh Afb, New York, USA
Distance from station: SSE 93km
Updated: 12/11/2017 02:14 EST
Light snow, Mist, Overcast
Light snow, Mist, Overcast
 Wind from calm
Wind: Calm
Temperature: -2°C
Dew Point: -4°C
Humidity: 86%
Barometer: 1010.5 hPa
Summary: Light snow, Mist
Clouds: Overcast
Visibility: 8 km
Cloud details: Mostly cloudy 1006 m
Overcast 2134 m
2017/12/11 07:14 KPBG 110714Z AUTO 00000KT 5SM -SN BR BKN033 OVC070 M02/M04 A2984 RMK AO2 P0000 T10171039 TSNO
KMSS - Massena, New York, USA
Distance from station: SW 100km
Updated: 12/11/2017 01:53 EST
Overcast
Overcast
 Wind from NW
Wind: NW 13 km/h
Temperature: -7°C
Wind Chill: -13°C
Dew Point: -10°C
Humidity: 79%
Barometer: 1012.5 hPa
Clouds: Overcast
Visibility: 16 km
Cloud details: Overcast 549 m
2017/12/11 06:53 KMSS 110653Z AUTO 32007KT 10SM OVC018 M07/M10 A2990 RMK AO2 SNE27 SLP131 P0000 T10671100
 
CWBS - Lac St Pierre (a, Quebec, Canada
Distance from station: NE 106km
Updated: 12/11/2017 02:00 EST

 Wind from N
Wind: N 31 km/h
Temperature: -10°C
Wind Chill: -20°C
Dew Point: -15°C
Humidity: 67%
2017/12/11 07:00 CWBS 110700Z AUTO 01017KT M10/M15 RMK AO1 PK WND 02021/0612 T10991151
KBTV - Burlington, Vermont, USA
Distance from station: SSE 121km
Updated: 12/11/2017 01:54 EST
Overcast
Overcast
 Wind from S
Wind: S 11 km/h
Temperature: -1°C
Wind Chill: -5°C
Dew Point: -6°C
Humidity: 69%
Barometer: 1010.2 hPa
Clouds: Overcast
Visibility: 16 km
Cloud details: Overcast 1981 m
2017/12/11 06:54 KBTV 110654Z 18006KT 10SM OVC065 M01/M06 A2983 RMK AO2 SLP104 T10061056
 
KSLK - Saranac Lake, New York, USA
Distance from station: SSW 121km
Updated: 12/11/2017 02:40 EST
Light snow, Mist, Overcast
Light snow, Mist, Overcast
 Wind from SW
Wind: SW 9 km/h
Temperature: -5°C
Wind Chill: -9°C
Dew Point: -6°C
Humidity: 93%
Barometer: 1007.5 hPa
Summary: Light snow, Mist
Clouds: Overcast
Visibility: 2 km
Cloud details: Few Clouds 244 m
Overcast 610 m
2017/12/11 07:40 KSLK 110740Z AUTO 23005KT 1 1/2SM -SN BR FEW008 OVC020 M05/M06 A2975 RMK AO2 P0000 T10501056 $
CWNQ - Nicolet (autob), Quebec, Canada
Distance from station: NE 123km
Updated: 12/11/2017 18:00 EST

 Wind from SW
Wind: SW 19 km/h, Gust: 30 km/h
Temperature: -4°C
Wind Chill: -10°C
Dew Point: -9°C
Humidity: 69%
2017/12/11 23:00 CWNQ 112300Z AUTO 22010G16KT M04/M09 RMK AO1 PK WND 23018/2241 SLP078 T10421086 51026
 
KMWN - Mount Washington, New Hampshire, USA
Distance from station: SE 237km
Updated: 12/11/2017 01:53 EST
Light snow, Freezing, Fog, Low drifting, Snow, Overcast
Light snow, Freezing, Fog, Low drifting, Snow, Overcast
 Wind from W
Wind: W 80 km/h
Temperature: -15°C
Wind Chill: -31°C
Dew Point: -15°C
Humidity: 100%
Summary: Light snow, Freezing, Fog, Low drifting, Snow
Clouds: Overcast
Visibility: 0 km
Cloud details: Overcast 0 m
2017/12/11 06:53 KMWN 110653Z 28043KT 0SM -SN FZFG DRSN VV000 M15/M15 RMK VRY LGT ICG
CYVR - Vancouver Intl A, British Columbia, Canada
Distance from station: NW 3676km
Updated: 12/11/2017 02:41 EST
Fog, Overcast
Fog, Overcast
 Wind from E
Wind: E 4 km/h
Temperature: 2°C
Dew Point: 2°C
Humidity: 100%
Barometer: 1027.4 hPa
Summary: Fog
Clouds: Overcast
Visibility: 0 km
Cloud details: Overcast 30 m
2017/12/11 07:41 CYVR 110741Z 09002KT 0SM R08R/1000V1400FT/N R08L/1200V1800FT/N FG VV001 02/02 A3034 RMK FG8 SLP276